sensor_id;sensor_type;location;lat;lon;timestamp;P1;durP1;ratioP1;P2;durP2;ratioP2
15655;SDS011;7928;43.614;1.456;2023-01-28T00:01:24;7.60;;;3.70;;
15655;SDS011;7928;43.614;1.456;2023-01-28T00:03:53;6.57;;;3.97;;
15655;SDS011;7928;43.614;1.456;2023-01-28T00:06:20;10.23;;;3.90;;
15655;SDS011;7928;43.614;1.456;2023-01-28T00:08:47;7.50;;;4.00;;
15655;SDS011;7928;43.614;1.456;2023-01-28T00:11:14;7.50;;;3.30;;
15655;SDS011;7928;43.614;1.456;2023-01-28T00:13:41;7.50;;;3.47;;
15655;SDS011;7928;43.614;1.456;2023-01-28T00:16:08;9.13;;;3.40;;
15655;SDS011;7928;43.614;1.456;2023-01-28T00:18:37;7.83;;;4.00;;
15655;SDS011;7928;43.614;1.456;2023-01-28T00:21:06;7.00;;;4.20;;
15655;SDS011;7928;43.614;1.456;2023-01-28T00:23:36;8.47;;;3.97;;
15655;SDS011;7928;43.614;1.456;2023-01-28T00:26:05;8.50;;;4.00;;
15655;SDS011;7928;43.614;1.456;2023-01-28T00:28:33;7.70;;;3.97;;
15655;SDS011;7928;43.614;1.456;2023-01-28T00:31:04;7.67;;;3.60;;
15655;SDS011;7928;43.614;1.456;2023-01-28T00:33:32;8.90;;;4.27;;
15655;SDS011;7928;43.614;1.456;2023-01-28T00:35:59;7.27;;;4.13;;
15655;SDS011;7928;43.614;1.456;2023-01-28T00:38:28;7.20;;;3.80;;
15655;SDS011;7928;43.614;1.456;2023-01-28T00:40:55;5.90;;;3.93;;
15655;SDS011;7928;43.614;1.456;2023-01-28T00:43:32;7.83;;;3.80;;
15655;SDS011;7928;43.614;1.456;2023-01-28T00:45:59;8.93;;;4.60;;
15655;SDS011;7928;43.614;1.456;2023-01-28T00:48:26;6.33;;;3.60;;
15655;SDS011;7928;43.614;1.456;2023-01-28T00:50:53;5.70;;;3.90;;
15655;SDS011;7928;43.614;1.456;2023-01-28T00:53:21;8.67;;;4.03;;
15655;SDS011;7928;43.614;1.456;2023-01-28T00:55:49;6.30;;;3.57;;
15655;SDS011;7928;43.614;1.456;2023-01-28T00:58:17;8.77;;;3.83;;
15655;SDS011;7928;43.614;1.456;2023-01-28T01:00:44;7.73;;;3.90;;
15655;SDS011;7928;43.614;1.456;2023-01-28T01:03:11;8.27;;;3.97;;
15655;SDS011;7928;43.614;1.456;2023-01-28T01:05:38;6.27;;;3.70;;
15655;SDS011;7928;43.614;1.456;2023-01-28T01:08:05;7.07;;;3.77;;
15655;SDS011;7928;43.614;1.456;2023-01-28T01:10:32;4.63;;;3.27;;
15655;SDS011;7928;43.614;1.456;2023-01-28T01:13:01;6.43;;;3.60;;
15655;SDS011;7928;43.614;1.456;2023-01-28T01:15:28;7.73;;;3.77;;
15655;SDS011;7928;43.614;1.456;2023-01-28T01:17:55;8.33;;;3.70;;
15655;SDS011;7928;43.614;1.456;2023-01-28T01:20:23;6.97;;;4.00;;
15655;SDS011;7928;43.614;1.456;2023-01-28T01:22:51;6.50;;;4.00;;
15655;SDS011;7928;43.614;1.456;2023-01-28T01:25:18;6.67;;;4.40;;
15655;SDS011;7928;43.614;1.456;2023-01-28T01:27:47;7.80;;;3.80;;
15655;SDS011;7928;43.614;1.456;2023-01-28T01:30:17;7.20;;;4.03;;
15655;SDS011;7928;43.614;1.456;2023-01-28T01:32:45;7.73;;;3.83;;
15655;SDS011;7928;43.614;1.456;2023-01-28T01:35:12;9.10;;;4.03;;
15655;SDS011;7928;43.614;1.456;2023-01-28T01:37:39;5.97;;;3.77;;
15655;SDS011;7928;43.614;1.456;2023-01-28T01:40:10;6.33;;;3.77;;
15655;SDS011;7928;43.614;1.456;2023-01-28T01:42:37;8.90;;;4.43;;
15655;SDS011;7928;43.614;1.456;2023-01-28T01:45:05;8.43;;;3.80;;
15655;SDS011;7928;43.614;1.456;2023-01-28T01:47:37;7.87;;;4.27;;
15655;SDS011;7928;43.614;1.456;2023-01-28T01:50:08;7.30;;;4.03;;
15655;SDS011;7928;43.614;1.456;2023-01-28T01:52:43;10.60;;;4.37;;
15655;SDS011;7928;43.614;1.456;2023-01-28T01:55:16;5.63;;;3.57;;
15655;SDS011;7928;43.614;1.456;2023-01-28T01:57:46;7.83;;;4.10;;
15655;SDS011;7928;43.614;1.456;2023-01-28T02:00:15;6.40;;;3.63;;
15655;SDS011;7928;43.614;1.456;2023-01-28T02:02:45;7.40;;;3.83;;
15655;SDS011;7928;43.614;1.456;2023-01-28T02:05:16;6.40;;;3.57;;
15655;SDS011;7928;43.614;1.456;2023-01-28T02:07:45;9.37;;;4.43;;
15655;SDS011;7928;43.614;1.456;2023-01-28T02:10:14;8.37;;;4.20;;
15655;SDS011;7928;43.614;1.456;2023-01-28T02:12:42;10.70;;;4.30;;
15655;SDS011;7928;43.614;1.456;2023-01-28T02:15:13;10.87;;;4.60;;
15655;SDS011;7928;43.614;1.456;2023-01-28T02:17:45;5.30;;;4.00;;
15655;SDS011;7928;43.614;1.456;2023-01-28T02:20:16;7.03;;;4.00;;
15655;SDS011;7928;43.614;1.456;2023-01-28T02:22:57;7.43;;;4.13;;
15655;SDS011;7928;43.614;1.456;2023-01-28T02:26:09;7.73;;;3.57;;
15655;SDS011;7928;43.614;1.456;2023-01-28T02:28:53;10.10;;;4.63;;
15655;SDS011;7928;43.614;1.456;2023-01-28T02:31:26;5.80;;;3.77;;
15655;SDS011;7928;43.614;1.456;2023-01-28T02:33:58;7.13;;;4.20;;
15655;SDS011;7928;43.614;1.456;2023-01-28T02:36:33;5.60;;;4.07;;
15655;SDS011;7928;43.614;1.456;2023-01-28T02:39:08;7.33;;;4.43;;
15655;SDS011;7928;43.614;1.456;2023-01-28T02:41:49;7.80;;;4.23;;
15655;SDS011;7928;43.614;1.456;2023-01-28T02:44:21;6.93;;;4.20;;
15655;SDS011;7928;43.614;1.456;2023-01-28T02:46:50;6.40;;;4.33;;
15655;SDS011;7928;43.614;1.456;2023-01-28T02:49:36;5.93;;;3.80;;
15655;SDS011;7928;43.614;1.456;2023-01-28T02:52:09;7.47;;;3.67;;
15655;SDS011;7928;43.614;1.456;2023-01-28T02:55:15;8.87;;;3.97;;
15655;SDS011;7928;43.614;1.456;2023-01-28T02:57:49;6.47;;;3.47;;
15655;SDS011;7928;43.614;1.456;2023-01-28T03:00:24;7.57;;;3.93;;
15655;SDS011;7928;43.614;1.456;2023-01-28T03:02:57;5.87;;;4.30;;
15655;SDS011;7928;43.614;1.456;2023-01-28T03:05:30;7.63;;;4.03;;
15655;SDS011;7928;43.614;1.456;2023-01-28T03:08:01;6.13;;;4.20;;
15655;SDS011;7928;43.614;1.456;2023-01-28T03:10:50;6.40;;;3.80;;
15655;SDS011;7928;43.614;1.456;2023-01-28T03:13:37;7.17;;;4.00;;
15655;SDS011;7928;43.614;1.456;2023-01-28T03:16:23;5.60;;;3.93;;
15655;SDS011;7928;43.614;1.456;2023-01-28T03:19:08;5.23;;;3.73;;
15655;SDS011;7928;43.614;1.456;2023-01-28T03:21:54;5.57;;;3.47;;
15655;SDS011;7928;43.614;1.456;2023-01-28T03:24:40;6.37;;;4.20;;
15655;SDS011;7928;43.614;1.456;2023-01-28T03:27:28;6.13;;;4.03;;
15655;SDS011;7928;43.614;1.456;2023-01-28T03:30:19;7.17;;;4.63;;
15655;SDS011;7928;43.614;1.456;2023-01-28T03:33:10;6.47;;;4.03;;
15655;SDS011;7928;43.614;1.456;2023-01-28T03:35:54;7.37;;;4.10;;
15655;SDS011;7928;43.614;1.456;2023-01-28T03:38:39;6.87;;;4.07;;
15655;SDS011;7928;43.614;1.456;2023-01-28T03:41:08;8.33;;;4.70;;
15655;SDS011;7928;43.614;1.456;2023-01-28T03:43:36;6.90;;;4.30;;
15655;SDS011;7928;43.614;1.456;2023-01-28T03:46:03;6.87;;;3.63;;
15655;SDS011;7928;43.614;1.456;2023-01-28T03:48:32;5.97;;;4.43;;
15655;SDS011;7928;43.614;1.456;2023-01-28T03:50:59;10.07;;;4.60;;
15655;SDS011;7928;43.614;1.456;2023-01-28T03:53:26;7.00;;;4.53;;
15655;SDS011;7928;43.614;1.456;2023-01-28T03:55:54;6.20;;;4.43;;
15655;SDS011;7928;43.614;1.456;2023-01-28T03:58:22;7.67;;;3.43;;
15655;SDS011;7928;43.614;1.456;2023-01-28T04:00:51;6.83;;;4.20;;
15655;SDS011;7928;43.614;1.456;2023-01-28T04:03:18;5.07;;;3.97;;
15655;SDS011;7928;43.614;1.456;2023-01-28T04:05:56;5.90;;;3.73;;
15655;SDS011;7928;43.614;1.456;2023-01-28T04:08:24;7.67;;;4.00;;
15655;SDS011;7928;43.614;1.456;2023-01-28T04:10:51;5.03;;;3.77;;
15655;SDS011;7928;43.614;1.456;2023-01-28T04:13:18;7.47;;;4.47;;
15655;SDS011;7928;43.614;1.456;2023-01-28T04:15:45;5.07;;;3.67;;
15655;SDS011;7928;43.614;1.456;2023-01-28T04:18:13;6.57;;;4.07;;
15655;SDS011;7928;43.614;1.456;2023-01-28T04:20:40;7.57;;;4.00;;
15655;SDS011;7928;43.614;1.456;2023-01-28T04:23:08;6.83;;;4.50;;
15655;SDS011;7928;43.614;1.456;2023-01-28T04:25:35;6.43;;;4.20;;
15655;SDS011;7928;43.614;1.456;2023-01-28T04:28:02;5.23;;;4.13;;
15655;SDS011;7928;43.614;1.456;2023-01-28T04:30:30;4.57;;;3.80;;
15655;SDS011;7928;43.614;1.456;2023-01-28T04:32:57;5.80;;;4.30;;
15655;SDS011;7928;43.614;1.456;2023-01-28T04:35:24;7.17;;;3.63;;
15655;SDS011;7928;43.614;1.456;2023-01-28T04:37:51;6.10;;;4.43;;
15655;SDS011;7928;43.614;1.456;2023-01-28T04:40:19;7.00;;;3.87;;
15655;SDS011;7928;43.614;1.456;2023-01-28T04:42:51;7.50;;;4.07;;
15655;SDS011;7928;43.614;1.456;2023-01-28T04:45:19;6.57;;;4.00;;
15655;SDS011;7928;43.614;1.456;2023-01-28T04:47:46;8.87;;;4.50;;
15655;SDS011;7928;43.614;1.456;2023-01-28T04:50:13;5.50;;;3.87;;
15655;SDS011;7928;43.614;1.456;2023-01-28T04:52:40;7.07;;;4.40;;
15655;SDS011;7928;43.614;1.456;2023-01-28T04:55:07;5.77;;;3.93;;
15655;SDS011;7928;43.614;1.456;2023-01-28T04:57:37;8.73;;;4.53;;
15655;SDS011;7928;43.614;1.456;2023-01-28T05:00:04;5.87;;;4.30;;
15655;SDS011;7928;43.614;1.456;2023-01-28T05:02:32;5.93;;;3.93;;
15655;SDS011;7928;43.614;1.456;2023-01-28T05:04:59;6.73;;;5.00;;
15655;SDS011;7928;43.614;1.456;2023-01-28T05:07:28;7.30;;;4.70;;
15655;SDS011;7928;43.614;1.456;2023-01-28T05:09:55;6.47;;;3.97;;
15655;SDS011;7928;43.614;1.456;2023-01-28T05:12:22;9.00;;;4.60;;
15655;SDS011;7928;43.614;1.456;2023-01-28T05:14:51;6.03;;;4.87;;
15655;SDS011;7928;43.614;1.456;2023-01-28T05:17:18;7.13;;;4.47;;
15655;SDS011;7928;43.614;1.456;2023-01-28T05:19:45;5.30;;;4.07;;
15655;SDS011;7928;43.614;1.456;2023-01-28T05:22:12;5.93;;;4.33;;
15655;SDS011;7928;43.614;1.456;2023-01-28T05:24:39;6.40;;;3.77;;
15655;SDS011;7928;43.614;1.456;2023-01-28T05:27:06;6.53;;;4.70;;
15655;SDS011;7928;43.614;1.456;2023-01-28T05:29:33;5.33;;;4.33;;
15655;SDS011;7928;43.614;1.456;2023-01-28T05:32:02;5.70;;;4.20;;
15655;SDS011;7928;43.614;1.456;2023-01-28T05:34:29;6.37;;;4.57;;
15655;SDS011;7928;43.614;1.456;2023-01-28T05:36:56;8.33;;;5.13;;
15655;SDS011;7928;43.614;1.456;2023-01-28T05:39:23;8.03;;;4.93;;
15655;SDS011;7928;43.614;1.456;2023-01-28T05:41:50;8.83;;;4.80;;
15655;SDS011;7928;43.614;1.456;2023-01-28T05:44:17;7.27;;;4.70;;
15655;SDS011;7928;43.614;1.456;2023-01-28T05:46:44;8.87;;;5.13;;
15655;SDS011;7928;43.614;1.456;2023-01-28T05:49:13;6.87;;;4.73;;
15655;SDS011;7928;43.614;1.456;2023-01-28T05:51:40;9.20;;;5.20;;
15655;SDS011;7928;43.614;1.456;2023-01-28T05:54:08;5.70;;;4.70;;
15655;SDS011;7928;43.614;1.456;2023-01-28T05:56:35;8.13;;;4.87;;
15655;SDS011;7928;43.614;1.456;2023-01-28T05:59:02;9.07;;;5.00;;
15655;SDS011;7928;43.614;1.456;2023-01-28T06:01:30;7.67;;;4.90;;
15655;SDS011;7928;43.614;1.456;2023-01-28T06:03:57;9.33;;;5.00;;
15655;SDS011;7928;43.614;1.456;2023-01-28T06:06:26;6.90;;;4.83;;
15655;SDS011;7928;43.614;1.456;2023-01-28T06:08:53;7.90;;;5.03;;
15655;SDS011;7928;43.614;1.456;2023-01-28T06:11:20;7.07;;;4.63;;
15655;SDS011;7928;43.614;1.456;2023-01-28T06:13:47;8.63;;;5.73;;
15655;SDS011;7928;43.614;1.456;2023-01-28T06:16:14;7.87;;;5.53;;
15655;SDS011;7928;43.614;1.456;2023-01-28T06:18:41;7.30;;;4.73;;
15655;SDS011;7928;43.614;1.456;2023-01-28T06:21:08;7.60;;;5.30;;
15655;SDS011;7928;43.614;1.456;2023-01-28T06:23:37;7.20;;;5.10;;
15655;SDS011;7928;43.614;1.456;2023-01-28T06:26:04;8.57;;;5.30;;
15655;SDS011;7928;43.614;1.456;2023-01-28T06:28:31;7.37;;;5.33;;
15655;SDS011;7928;43.614;1.456;2023-01-28T06:30:58;7.17;;;5.20;;
15655;SDS011;7928;43.614;1.456;2023-01-28T06:33:25;7.90;;;5.33;;
15655;SDS011;7928;43.614;1.456;2023-01-28T06:35:53;7.07;;;4.90;;
15655;SDS011;7928;43.614;1.456;2023-01-28T06:38:20;7.90;;;5.70;;
15655;SDS011;7928;43.614;1.456;2023-01-28T06:40:51;9.70;;;5.20;;
15655;SDS011;7928;43.614;1.456;2023-01-28T06:43:20;8.73;;;4.47;;
15655;SDS011;7928;43.614;1.456;2023-01-28T06:45:51;6.73;;;4.73;;
15655;SDS011;7928;43.614;1.456;2023-01-28T06:48:18;7.77;;;5.20;;
15655;SDS011;7928;43.614;1.456;2023-01-28T06:50:46;6.57;;;5.00;;
15655;SDS011;7928;43.614;1.456;2023-01-28T06:53:13;6.60;;;5.17;;
15655;SDS011;7928;43.614;1.456;2023-01-28T06:55:40;10.17;;;5.30;;
15655;SDS011;7928;43.614;1.456;2023-01-28T06:58:09;7.50;;;5.50;;
15655;SDS011;7928;43.614;1.456;2023-01-28T07:00:36;9.17;;;6.30;;
15655;SDS011;7928;43.614;1.456;2023-01-28T07:03:04;7.77;;;4.77;;
15655;SDS011;7928;43.614;1.456;2023-01-28T07:05:31;8.47;;;5.00;;
15655;SDS011;7928;43.614;1.456;2023-01-28T07:07:58;10.20;;;5.83;;
15655;SDS011;7928;43.614;1.456;2023-01-28T07:10:26;9.77;;;5.70;;
15655;SDS011;7928;43.614;1.456;2023-01-28T07:12:53;9.03;;;5.20;;
15655;SDS011;7928;43.614;1.456;2023-01-28T07:15:22;9.67;;;6.10;;
15655;SDS011;7928;43.614;1.456;2023-01-28T07:17:49;7.87;;;5.17;;
15655;SDS011;7928;43.614;1.456;2023-01-28T07:20:16;6.57;;;5.30;;
15655;SDS011;7928;43.614;1.456;2023-01-28T07:22:43;6.70;;;4.83;;
15655;SDS011;7928;43.614;1.456;2023-01-28T07:25:11;10.53;;;5.70;;
15655;SDS011;7928;43.614;1.456;2023-01-28T07:27:44;8.27;;;5.10;;
15655;SDS011;7928;43.614;1.456;2023-01-28T07:30:12;9.37;;;5.00;;
15655;SDS011;7928;43.614;1.456;2023-01-28T07:32:41;7.03;;;4.87;;
15655;SDS011;7928;43.614;1.456;2023-01-28T07:35:09;9.67;;;6.03;;
15655;SDS011;7928;43.614;1.456;2023-01-28T07:37:36;6.93;;;5.30;;
15655;SDS011;7928;43.614;1.456;2023-01-28T07:40:03;6.67;;;5.47;;
15655;SDS011;7928;43.614;1.456;2023-01-28T07:42:31;8.33;;;5.73;;
15655;SDS011;7928;43.614;1.456;2023-01-28T07:44:58;7.70;;;5.57;;
15655;SDS011;7928;43.614;1.456;2023-01-28T07:47:25;12.13;;;6.20;;
15655;SDS011;7928;43.614;1.456;2023-01-28T07:49:54;8.07;;;5.13;;
15655;SDS011;7928;43.614;1.456;2023-01-28T07:52:21;8.70;;;5.13;;
15655;SDS011;7928;43.614;1.456;2023-01-28T07:54:48;7.07;;;5.23;;
15655;SDS011;7928;43.614;1.456;2023-01-28T07:57:15;8.13;;;5.57;;
15655;SDS011;7928;43.614;1.456;2023-01-28T07:59:47;7.33;;;5.20;;
15655;SDS011;7928;43.614;1.456;2023-01-28T08:02:14;10.03;;;5.73;;
15655;SDS011;7928;43.614;1.456;2023-01-28T08:04:42;7.17;;;5.73;;
15655;SDS011;7928;43.614;1.456;2023-01-28T08:07:11;8.20;;;5.60;;
15655;SDS011;7928;43.614;1.456;2023-01-28T08:09:38;7.90;;;4.97;;
15655;SDS011;7928;43.614;1.456;2023-01-28T08:12:05;7.63;;;5.80;;
15655;SDS011;7928;43.614;1.456;2023-01-28T08:14:32;8.23;;;5.53;;
15655;SDS011;7928;43.614;1.456;2023-01-28T08:16:59;7.27;;;5.40;;
15655;SDS011;7928;43.614;1.456;2023-01-28T08:19:26;10.03;;;5.80;;
15655;SDS011;7928;43.614;1.456;2023-01-28T08:21:53;7.27;;;5.17;;
15655;SDS011;7928;43.614;1.456;2023-01-28T08:24:21;8.87;;;6.13;;
15655;SDS011;7928;43.614;1.456;2023-01-28T08:26:48;7.57;;;5.60;;
15655;SDS011;7928;43.614;1.456;2023-01-28T08:29:15;7.83;;;6.10;;
15655;SDS011;7928;43.614;1.456;2023-01-28T08:31:42;8.13;;;5.30;;
15655;SDS011;7928;43.614;1.456;2023-01-28T08:34:09;8.50;;;5.40;;
15655;SDS011;7928;43.614;1.456;2023-01-28T08:36:37;8.37;;;5.30;;
15655;SDS011;7928;43.614;1.456;2023-01-28T08:39:04;8.87;;;5.73;;
15655;SDS011;7928;43.614;1.456;2023-01-28T08:41:32;9.67;;;6.30;;
15655;SDS011;7928;43.614;1.456;2023-01-28T08:43:59;7.67;;;5.13;;
15655;SDS011;7928;43.614;1.456;2023-01-28T08:46:26;7.80;;;5.90;;
15655;SDS011;7928;43.614;1.456;2023-01-28T08:48:53;8.50;;;5.90;;
15655;SDS011;7928;43.614;1.456;2023-01-28T08:51:20;10.70;;;6.53;;
15655;SDS011;7928;43.614;1.456;2023-01-28T08:53:47;8.23;;;5.97;;
15655;SDS011;7928;43.614;1.456;2023-01-28T08:56:14;7.90;;;5.70;;
15655;SDS011;7928;43.614;1.456;2023-01-28T08:58:43;7.93;;;5.67;;
15655;SDS011;7928;43.614;1.456;2023-01-28T09:01:10;6.80;;;5.30;;
15655;SDS011;7928;43.614;1.456;2023-01-28T09:03:37;9.70;;;5.47;;
15655;SDS011;7928;43.614;1.456;2023-01-28T09:06:04;9.73;;;6.57;;
15655;SDS011;7928;43.614;1.456;2023-01-28T09:08:31;8.33;;;5.70;;
15655;SDS011;7928;43.614;1.456;2023-01-28T09:10:59;11.23;;;6.40;;
15655;SDS011;7928;43.614;1.456;2023-01-28T09:13:26;9.43;;;6.63;;
15655;SDS011;7928;43.614;1.456;2023-01-28T09:15:55;7.63;;;5.93;;
15655;SDS011;7928;43.614;1.456;2023-01-28T09:18:22;7.80;;;5.47;;
15655;SDS011;7928;43.614;1.456;2023-01-28T09:20:49;6.07;;;4.90;;
15655;SDS011;7928;43.614;1.456;2023-01-28T09:23:16;6.63;;;5.37;;
15655;SDS011;7928;43.614;1.456;2023-01-28T09:25:43;7.67;;;5.07;;
15655;SDS011;7928;43.614;1.456;2023-01-28T09:28:10;7.60;;;5.27;;
15655;SDS011;7928;43.614;1.456;2023-01-28T09:30:37;7.10;;;5.77;;
15655;SDS011;7928;43.614;1.456;2023-01-28T09:33:06;7.53;;;5.20;;
15655;SDS011;7928;43.614;1.456;2023-01-28T09:35:33;9.73;;;5.90;;
15655;SDS011;7928;43.614;1.456;2023-01-28T09:38:01;7.20;;;5.50;;
15655;SDS011;7928;43.614;1.456;2023-01-28T09:40:30;8.03;;;5.93;;
15655;SDS011;7928;43.614;1.456;2023-01-28T09:43:04;9.33;;;6.00;;
15655;SDS011;7928;43.614;1.456;2023-01-28T09:45:51;8.77;;;5.87;;
15655;SDS011;7928;43.614;1.456;2023-01-28T09:48:29;9.67;;;7.37;;
15655;SDS011;7928;43.614;1.456;2023-01-28T09:51:02;14.47;;;7.30;;
15655;SDS011;7928;43.614;1.456;2023-01-28T09:53:33;18.67;;;12.67;;
15655;SDS011;7928;43.614;1.456;2023-01-28T09:56:05;9.93;;;6.57;;
15655;SDS011;7928;43.614;1.456;2023-01-28T09:58:36;7.57;;;6.13;;
15655;SDS011;7928;43.614;1.456;2023-01-28T10:01:09;7.13;;;5.17;;
15655;SDS011;7928;43.614;1.456;2023-01-28T10:04:04;9.33;;;5.63;;
15655;SDS011;7928;43.614;1.456;2023-01-28T10:06:43;9.43;;;5.87;;
15655;SDS011;7928;43.614;1.456;2023-01-28T10:09:23;6.03;;;4.60;;
15655;SDS011;7928;43.614;1.456;2023-01-28T10:11:59;8.37;;;5.90;;
15655;SDS011;7928;43.614;1.456;2023-01-28T10:14:50;8.73;;;5.57;;
15655;SDS011;7928;43.614;1.456;2023-01-28T10:17:27;8.43;;;6.00;;
15655;SDS011;7928;43.614;1.456;2023-01-28T10:19:59;8.00;;;5.90;;
15655;SDS011;7928;43.614;1.456;2023-01-28T10:22:33;8.37;;;6.20;;
15655;SDS011;7928;43.614;1.456;2023-01-28T10:25:05;8.43;;;6.10;;
15655;SDS011;7928;43.614;1.456;2023-01-28T10:27:40;9.90;;;6.20;;
15655;SDS011;7928;43.614;1.456;2023-01-28T10:30:14;6.57;;;5.03;;
15655;SDS011;7928;43.614;1.456;2023-01-28T10:32:45;7.77;;;5.50;;
15655;SDS011;7928;43.614;1.456;2023-01-28T10:35:18;6.83;;;5.30;;
15655;SDS011;7928;43.614;1.456;2023-01-28T10:37:45;8.43;;;5.07;;
15655;SDS011;7928;43.614;1.456;2023-01-28T10:40:14;7.23;;;5.57;;
15655;SDS011;7928;43.614;1.456;2023-01-28T10:42:42;6.33;;;5.10;;
15655;SDS011;7928;43.614;1.456;2023-01-28T10:45:14;7.10;;;4.87;;
15655;SDS011;7928;43.614;1.456;2023-01-28T10:47:47;6.80;;;5.23;;
15655;SDS011;7928;43.614;1.456;2023-01-28T10:50:21;7.87;;;5.90;;
15655;SDS011;7928;43.614;1.456;2023-01-28T10:52:53;8.03;;;5.70;;
15655;SDS011;7928;43.614;1.456;2023-01-28T10:55:20;8.50;;;5.67;;
15655;SDS011;7928;43.614;1.456;2023-01-28T10:57:48;9.90;;;6.33;;
15655;SDS011;7928;43.614;1.456;2023-01-28T11:00:22;8.10;;;5.60;;
15655;SDS011;7928;43.614;1.456;2023-01-28T11:02:51;7.50;;;5.57;;
15655;SDS011;7928;43.614;1.456;2023-01-28T11:05:19;5.73;;;4.67;;
15655;SDS011;7928;43.614;1.456;2023-01-28T11:07:50;7.50;;;5.80;;
15655;SDS011;7928;43.614;1.456;2023-01-28T11:10:29;7.90;;;5.57;;
15655;SDS011;7928;43.614;1.456;2023-01-28T11:12:58;9.77;;;5.27;;
15655;SDS011;7928;43.614;1.456;2023-01-28T11:15:27;8.23;;;5.57;;
15655;SDS011;7928;43.614;1.456;2023-01-28T11:17:55;8.20;;;5.73;;
15655;SDS011;7928;43.614;1.456;2023-01-28T11:20:26;7.00;;;6.00;;
15655;SDS011;7928;43.614;1.456;2023-01-28T11:22:56;8.50;;;6.13;;
15655;SDS011;7928;43.614;1.456;2023-01-28T11:25:26;6.67;;;5.03;;
15655;SDS011;7928;43.614;1.456;2023-01-28T11:27:56;7.50;;;6.37;;
15655;SDS011;7928;43.614;1.456;2023-01-28T11:30:25;9.57;;;6.10;;
15655;SDS011;7928;43.614;1.456;2023-01-28T11:32:55;9.90;;;6.07;;
15655;SDS011;7928;43.614;1.456;2023-01-28T11:35:26;7.53;;;6.03;;
15655;SDS011;7928;43.614;1.456;2023-01-28T11:37:55;8.20;;;6.47;;
15655;SDS011;7928;43.614;1.456;2023-01-28T11:40:22;7.23;;;5.30;;
15655;SDS011;7928;43.614;1.456;2023-01-28T11:42:50;10.07;;;6.97;;
15655;SDS011;7928;43.614;1.456;2023-01-28T11:45:21;9.77;;;6.73;;
15655;SDS011;7928;43.614;1.456;2023-01-28T11:48:02;8.13;;;6.60;;
15655;SDS011;7928;43.614;1.456;2023-01-28T11:50:45;9.13;;;6.00;;
15655;SDS011;7928;43.614;1.456;2023-01-28T11:53:21;9.03;;;6.17;;
15655;SDS011;7928;43.614;1.456;2023-01-28T11:56:12;10.63;;;6.77;;
15655;SDS011;7928;43.614;1.456;2023-01-28T11:58:54;7.63;;;5.57;;
15655;SDS011;7928;43.614;1.456;2023-01-28T12:01:32;7.63;;;5.80;;
15655;SDS011;7928;43.614;1.456;2023-01-28T12:04:12;11.03;;;6.60;;
15655;SDS011;7928;43.614;1.456;2023-01-28T12:07:13;10.30;;;5.43;;
15655;SDS011;7928;43.614;1.456;2023-01-28T12:09:53;8.00;;;5.77;;
15655;SDS011;7928;43.614;1.456;2023-01-28T12:18:30;8.83;;;5.73;;
15655;SDS011;7928;43.614;1.456;2023-01-28T12:21:25;6.47;;;5.30;;
15655;SDS011;7928;43.614;1.456;2023-01-28T12:24:06;8.57;;;6.73;;
15655;SDS011;7928;43.614;1.456;2023-01-28T12:26:43;7.83;;;5.80;;
15655;SDS011;7928;43.614;1.456;2023-01-28T12:29:17;8.70;;;6.03;;
15655;SDS011;7928;43.614;1.456;2023-01-28T12:31:59;9.80;;;6.37;;
15655;SDS011;7928;43.614;1.456;2023-01-28T12:34:48;8.97;;;6.37;;
15655;SDS011;7928;43.614;1.456;2023-01-28T12:37:31;7.87;;;5.63;;
15655;SDS011;7928;43.614;1.456;2023-01-28T12:40:12;8.23;;;6.30;;
15655;SDS011;7928;43.614;1.456;2023-01-28T12:42:50;7.70;;;6.07;;
15655;SDS011;7928;43.614;1.456;2023-01-28T12:45:22;7.33;;;5.93;;
15655;SDS011;7928;43.614;1.456;2023-01-28T12:47:59;8.30;;;6.37;;
15655;SDS011;7928;43.614;1.456;2023-01-28T12:50:31;6.83;;;5.40;;
15655;SDS011;7928;43.614;1.456;2023-01-28T12:53:01;8.10;;;5.70;;
15655;SDS011;7928;43.614;1.456;2023-01-28T12:55:39;7.90;;;6.13;;
15655;SDS011;7928;43.614;1.456;2023-01-28T12:58:11;10.47;;;5.30;;
15655;SDS011;7928;43.614;1.456;2023-01-28T13:00:45;9.53;;;6.40;;
15655;SDS011;7928;43.614;1.456;2023-01-28T13:03:16;6.17;;;4.87;;
15655;SDS011;7928;43.614;1.456;2023-01-28T13:05:48;6.57;;;5.17;;
15655;SDS011;7928;43.614;1.456;2023-01-28T13:08:19;6.80;;;5.30;;
15655;SDS011;7928;43.614;1.456;2023-01-28T13:10:51;7.50;;;4.87;;
15655;SDS011;7928;43.614;1.456;2023-01-28T13:13:19;6.53;;;5.17;;
15655;SDS011;7928;43.614;1.456;2023-01-28T13:15:52;6.00;;;4.90;;
15655;SDS011;7928;43.614;1.456;2023-01-28T13:18:29;7.37;;;5.23;;
15655;SDS011;7928;43.614;1.456;2023-01-28T13:20:59;6.47;;;5.00;;
15655;SDS011;7928;43.614;1.456;2023-01-28T13:23:35;5.33;;;4.50;;
15655;SDS011;7928;43.614;1.456;2023-01-28T13:26:10;5.67;;;4.67;;
15655;SDS011;7928;43.614;1.456;2023-01-28T13:28:56;5.87;;;4.17;;
15655;SDS011;7928;43.614;1.456;2023-01-28T13:31:37;5.73;;;4.40;;
15655;SDS011;7928;43.614;1.456;2023-01-28T13:34:06;5.77;;;4.57;;
15655;SDS011;7928;43.614;1.456;2023-01-28T13:36:36;5.87;;;4.73;;
15655;SDS011;7928;43.614;1.456;2023-01-28T13:39:13;6.20;;;4.70;;
15655;SDS011;7928;43.614;1.456;2023-01-28T13:41:45;6.13;;;4.73;;
15655;SDS011;7928;43.614;1.456;2023-01-28T13:44:20;7.07;;;4.87;;
15655;SDS011;7928;43.614;1.456;2023-01-28T13:46:54;5.60;;;4.33;;
15655;SDS011;7928;43.614;1.456;2023-01-28T13:49:25;6.43;;;4.30;;
15655;SDS011;7928;43.614;1.456;2023-01-28T13:51:58;4.93;;;4.40;;
15655;SDS011;7928;43.614;1.456;2023-01-28T13:54:33;4.43;;;3.73;;
15655;SDS011;7928;43.614;1.456;2023-01-28T13:57:11;4.53;;;3.97;;
15655;SDS011;7928;43.614;1.456;2023-01-28T13:59:53;5.23;;;4.10;;
15655;SDS011;7928;43.614;1.456;2023-01-28T14:08:37;5.53;;;4.97;;
15655;SDS011;7928;43.614;1.456;2023-01-28T14:14:41;4.47;;;3.90;;
15655;SDS011;7928;43.614;1.456;2023-01-28T14:17:29;5.30;;;4.03;;
15655;SDS011;7928;43.614;1.456;2023-01-28T14:20:09;5.50;;;4.43;;
15655;SDS011;7928;43.614;1.456;2023-01-28T14:22:43;5.97;;;4.90;;
15655;SDS011;7928;43.614;1.456;2023-01-28T14:25:11;6.40;;;5.00;;
15655;SDS011;7928;43.614;1.456;2023-01-28T14:27:41;6.23;;;4.70;;
15655;SDS011;7928;43.614;1.456;2023-01-28T14:30:17;6.33;;;5.10;;
15655;SDS011;7928;43.614;1.456;2023-01-28T14:32:50;7.27;;;5.00;;
15655;SDS011;7928;43.614;1.456;2023-01-28T14:35:21;8.73;;;6.07;;
15655;SDS011;7928;43.614;1.456;2023-01-28T14:37:54;7.50;;;5.47;;
15655;SDS011;7928;43.614;1.456;2023-01-28T14:40:23;6.23;;;5.07;;
15655;SDS011;7928;43.614;1.456;2023-01-28T14:42:51;7.37;;;5.50;;
15655;SDS011;7928;43.614;1.456;2023-01-28T14:45:28;7.90;;;5.63;;
15655;SDS011;7928;43.614;1.456;2023-01-28T14:57:06;8.07;;;5.67;;
15655;SDS011;7928;43.614;1.456;2023-01-28T14:59:46;6.30;;;5.30;;
15655;SDS011;7928;43.614;1.456;2023-01-28T15:02:19;7.93;;;5.73;;
15655;SDS011;7928;43.614;1.456;2023-01-28T15:04:47;7.57;;;6.43;;
15655;SDS011;7928;43.614;1.456;2023-01-28T15:07:16;6.97;;;5.33;;
15655;SDS011;7928;43.614;1.456;2023-01-28T15:09:45;6.90;;;5.27;;
15655;SDS011;7928;43.614;1.456;2023-01-28T15:12:13;7.00;;;5.83;;
15655;SDS011;7928;43.614;1.456;2023-01-28T15:14:42;7.07;;;5.57;;
15655;SDS011;7928;43.614;1.456;2023-01-28T15:17:16;7.83;;;5.30;;
15655;SDS011;7928;43.614;1.456;2023-01-28T15:19:49;9.53;;;5.57;;
15655;SDS011;7928;43.614;1.456;2023-01-28T15:22:18;8.67;;;6.07;;
15655;SDS011;7928;43.614;1.456;2023-01-28T15:24:50;7.77;;;5.70;;
15655;SDS011;7928;43.614;1.456;2023-01-28T15:27:17;6.60;;;5.27;;
15655;SDS011;7928;43.614;1.456;2023-01-28T15:29:50;7.30;;;5.60;;
15655;SDS011;7928;43.614;1.456;2023-01-28T15:32:21;5.37;;;4.67;;
15655;SDS011;7928;43.614;1.456;2023-01-28T15:34:51;8.20;;;6.00;;
15655;SDS011;7928;43.614;1.456;2023-01-28T15:37:18;6.60;;;5.20;;
15655;SDS011;7928;43.614;1.456;2023-01-28T15:39:46;7.80;;;6.10;;
15655;SDS011;7928;43.614;1.456;2023-01-28T15:42:16;7.30;;;5.83;;
15655;SDS011;7928;43.614;1.456;2023-01-28T15:44:46;8.60;;;5.80;;
15655;SDS011;7928;43.614;1.456;2023-01-28T15:47:15;6.53;;;5.13;;
15655;SDS011;7928;43.614;1.456;2023-01-28T15:49:47;7.90;;;6.20;;